sensor_id;sensor_type;location;lat;lon;timestamp;P1;durP1;ratioP1;P2;durP2;ratioP2
19569;SDS011;9931;51.458;7.256;2023-03-14T00:00:50;23.52;;;1.85;;
19569;SDS011;9931;51.458;7.256;2023-03-14T00:03:15;23.90;;;1.85;;
19569;SDS011;9931;51.458;7.256;2023-03-14T00:05:40;81.57;;;5.15;;
19569;SDS011;9931;51.458;7.256;2023-03-14T00:08:06;56.33;;;3.93;;
19569;SDS011;9931;51.458;7.256;2023-03-14T00:10:31;46.80;;;3.25;;
19569;SDS011;9931;51.458;7.256;2023-03-14T00:12:56;52.15;;;3.55;;
19569;SDS011;9931;51.458;7.256;2023-03-14T00:15:21;41.33;;;2.92;;
19569;SDS011;9931;51.458;7.256;2023-03-14T00:17:46;68.72;;;4.43;;
19569;SDS011;9931;51.458;7.256;2023-03-14T00:20:12;87.88;;;5.53;;
19569;SDS011;9931;51.458;7.256;2023-03-14T00:22:38;32.17;;;2.28;;
19569;SDS011;9931;51.458;7.256;2023-03-14T00:25:04;44.72;;;3.10;;
19569;SDS011;9931;51.458;7.256;2023-03-14T00:27:30;60.33;;;4.13;;
19569;SDS011;9931;51.458;7.256;2023-03-14T00:29:55;74.95;;;4.85;;
19569;SDS011;9931;51.458;7.256;2023-03-14T00:32:20;47.13;;;3.30;;
19569;SDS011;9931;51.458;7.256;2023-03-14T00:34:45;53.15;;;3.63;;
19569;SDS011;9931;51.458;7.256;2023-03-14T00:37:11;57.65;;;3.90;;
19569;SDS011;9931;51.458;7.256;2023-03-14T00:39:36;56.95;;;3.80;;
19569;SDS011;9931;51.458;7.256;2023-03-14T00:42:01;68.95;;;4.38;;
19569;SDS011;9931;51.458;7.256;2023-03-14T00:44:26;52.35;;;3.65;;
19569;SDS011;9931;51.458;7.256;2023-03-14T00:46:52;28.85;;;2.20;;
19569;SDS011;9931;51.458;7.256;2023-03-14T00:49:17;65.63;;;4.28;;
19569;SDS011;9931;51.458;7.256;2023-03-14T00:51:42;47.95;;;3.28;;
19569;SDS011;9931;51.458;7.256;2023-03-14T00:54:07;45.03;;;3.20;;
19569;SDS011;9931;51.458;7.256;2023-03-14T00:56:33;54.30;;;3.60;;
19569;SDS011;9931;51.458;7.256;2023-03-14T00:58:58;44.80;;;3.08;;
19569;SDS011;9931;51.458;7.256;2023-03-14T01:01:23;78.57;;;5.10;;
19569;SDS011;9931;51.458;7.256;2023-03-14T01:03:52;58.72;;;3.92;;
19569;SDS011;9931;51.458;7.256;2023-03-14T01:06:19;51.80;;;3.55;;
19569;SDS011;9931;51.458;7.256;2023-03-14T01:08:44;69.43;;;4.30;;
19569;SDS011;9931;51.458;7.256;2023-03-14T01:11:11;79.22;;;4.88;;
19569;SDS011;9931;51.458;7.256;2023-03-14T01:13:37;42.92;;;2.92;;
19569;SDS011;9931;51.458;7.256;2023-03-14T01:16:06;61.38;;;4.03;;
19569;SDS011;9931;51.458;7.256;2023-03-14T01:18:33;51.95;;;3.47;;
19569;SDS011;9931;51.458;7.256;2023-03-14T01:21:00;57.00;;;3.70;;
19569;SDS011;9931;51.458;7.256;2023-03-14T01:23:25;60.70;;;3.92;;
19569;SDS011;9931;51.458;7.256;2023-03-14T01:25:50;39.78;;;2.75;;
19569;SDS011;9931;51.458;7.256;2023-03-14T01:28:15;62.70;;;4.05;;
19569;SDS011;9931;51.458;7.256;2023-03-14T01:30:41;74.68;;;4.70;;
19569;SDS011;9931;51.458;7.256;2023-03-14T01:33:06;45.05;;;3.10;;
19569;SDS011;9931;51.458;7.256;2023-03-14T01:35:32;62.03;;;4.07;;
19569;SDS011;9931;51.458;7.256;2023-03-14T01:37:58;17.52;;;1.55;;
19569;SDS011;9931;51.458;7.256;2023-03-14T01:40:23;47.78;;;3.30;;
19569;SDS011;9931;51.458;7.256;2023-03-14T01:43:00;55.75;;;3.72;;
19569;SDS011;9931;51.458;7.256;2023-03-14T01:48:14;53.50;;;3.67;;
19569;SDS011;9931;51.458;7.256;2023-03-14T01:50:39;86.30;;;5.43;;
19569;SDS011;9931;51.458;7.256;2023-03-14T01:53:04;40.25;;;2.85;;
19569;SDS011;9931;51.458;7.256;2023-03-14T01:55:29;48.03;;;3.42;;
19569;SDS011;9931;51.458;7.256;2023-03-14T01:57:58;76.25;;;4.97;;
19569;SDS011;9931;51.458;7.256;2023-03-14T02:00:24;47.40;;;3.20;;
19569;SDS011;9931;51.458;7.256;2023-03-14T02:02:50;119.20;;;7.28;;
19569;SDS011;9931;51.458;7.256;2023-03-14T02:05:21;33.67;;;2.53;;
19569;SDS011;9931;51.458;7.256;2023-03-14T02:07:58;32.33;;;2.58;;
19569;SDS011;9931;51.458;7.256;2023-03-14T02:10:24;67.97;;;4.40;;
19569;SDS011;9931;51.458;7.256;2023-03-14T02:12:50;48.75;;;3.40;;
19569;SDS011;9931;51.458;7.256;2023-03-14T02:15:16;43.53;;;3.10;;
19569;SDS011;9931;51.458;7.256;2023-03-14T02:17:42;56.75;;;3.85;;
19569;SDS011;9931;51.458;7.256;2023-03-14T02:22:37;52.05;;;3.53;;
19569;SDS011;9931;51.458;7.256;2023-03-14T02:27:47;56.55;;;3.78;;
19569;SDS011;9931;51.458;7.256;2023-03-14T02:30:23;45.70;;;3.20;;
19569;SDS011;9931;51.458;7.256;2023-03-14T02:32:50;62.30;;;4.15;;
19569;SDS011;9931;51.458;7.256;2023-03-14T02:35:22;38.75;;;2.83;;
19569;SDS011;9931;51.458;7.256;2023-03-14T02:37:49;43.45;;;3.15;;
19569;SDS011;9931;51.458;7.256;2023-03-14T02:40:16;57.58;;;3.97;;
19569;SDS011;9931;51.458;7.256;2023-03-14T02:42:42;76.80;;;5.05;;
19569;SDS011;9931;51.458;7.256;2023-03-14T02:47:32;57.03;;;3.83;;
19569;SDS011;9931;51.458;7.256;2023-03-14T02:50:02;65.43;;;4.40;;
19569;SDS011;9931;51.458;7.256;2023-03-14T02:52:28;46.47;;;3.33;;
19569;SDS011;9931;51.458;7.256;2023-03-14T02:54:53;64.68;;;4.35;;
19569;SDS011;9931;51.458;7.256;2023-03-14T02:57:18;54.95;;;3.72;;
19569;SDS011;9931;51.458;7.256;2023-03-14T02:59:43;58.55;;;3.90;;
19569;SDS011;9931;51.458;7.256;2023-03-14T03:02:09;65.28;;;4.43;;
19569;SDS011;9931;51.458;7.256;2023-03-14T03:04:34;50.85;;;3.60;;
19569;SDS011;9931;51.458;7.256;2023-03-14T03:06:59;61.60;;;4.10;;
19569;SDS011;9931;51.458;7.256;2023-03-14T03:09:24;38.47;;;2.80;;
19569;SDS011;9931;51.458;7.256;2023-03-14T03:11:49;71.18;;;4.72;;
19569;SDS011;9931;51.458;7.256;2023-03-14T03:14:15;35.80;;;2.55;;
19569;SDS011;9931;51.458;7.256;2023-03-14T03:16:40;44.35;;;3.17;;
19569;SDS011;9931;51.458;7.256;2023-03-14T03:19:05;54.75;;;3.70;;
19569;SDS011;9931;51.458;7.256;2023-03-14T03:21:30;58.85;;;3.97;;
19569;SDS011;9931;51.458;7.256;2023-03-14T03:23:55;74.28;;;4.70;;
19569;SDS011;9931;51.458;7.256;2023-03-14T03:26:21;57.10;;;3.90;;
19569;SDS011;9931;51.458;7.256;2023-03-14T03:28:46;62.10;;;4.15;;
19569;SDS011;9931;51.458;7.256;2023-03-14T03:31:11;77.80;;;4.97;;
19569;SDS011;9931;51.458;7.256;2023-03-14T03:33:37;87.57;;;5.63;;
19569;SDS011;9931;51.458;7.256;2023-03-14T03:36:03;63.67;;;4.25;;
19569;SDS011;9931;51.458;7.256;2023-03-14T03:38:28;33.53;;;2.63;;
19569;SDS011;9931;51.458;7.256;2023-03-14T03:40:53;48.13;;;3.30;;
19569;SDS011;9931;51.458;7.256;2023-03-14T03:43:18;20.95;;;1.67;;
19569;SDS011;9931;51.458;7.256;2023-03-14T03:45:43;70.50;;;4.63;;
19569;SDS011;9931;51.458;7.256;2023-03-14T03:48:09;67.57;;;4.53;;
19569;SDS011;9931;51.458;7.256;2023-03-14T03:50:34;67.90;;;4.53;;
19569;SDS011;9931;51.458;7.256;2023-03-14T03:52:59;55.25;;;3.70;;
19569;SDS011;9931;51.458;7.256;2023-03-14T03:55:24;61.72;;;4.25;;
19569;SDS011;9931;51.458;7.256;2023-03-14T03:57:50;55.47;;;3.67;;
19569;SDS011;9931;51.458;7.256;2023-03-14T04:00:16;56.10;;;3.80;;
19569;SDS011;9931;51.458;7.256;2023-03-14T04:02:41;44.30;;;3.03;;
19569;SDS011;9931;51.458;7.256;2023-03-14T04:05:06;91.25;;;5.82;;
19569;SDS011;9931;51.458;7.256;2023-03-14T04:07:32;53.38;;;3.75;;
19569;SDS011;9931;51.458;7.256;2023-03-14T04:09:57;35.00;;;2.55;;
19569;SDS011;9931;51.458;7.256;2023-03-14T04:12:22;32.53;;;2.38;;
19569;SDS011;9931;51.458;7.256;2023-03-14T04:14:48;56.05;;;4.00;;
19569;SDS011;9931;51.458;7.256;2023-03-14T04:17:13;45.55;;;3.28;;
19569;SDS011;9931;51.458;7.256;2023-03-14T04:19:38;45.03;;;3.33;;
19569;SDS011;9931;51.458;7.256;2023-03-14T04:22:03;56.35;;;4.05;;
19569;SDS011;9931;51.458;7.256;2023-03-14T04:24:29;82.97;;;5.53;;
19569;SDS011;9931;51.458;7.256;2023-03-14T04:26:54;50.63;;;3.60;;
19569;SDS011;9931;51.458;7.256;2023-03-14T04:29:19;51.03;;;3.65;;
19569;SDS011;9931;51.458;7.256;2023-03-14T04:31:44;41.40;;;3.05;;
19569;SDS011;9931;51.458;7.256;2023-03-14T04:34:10;56.92;;;4.00;;
19569;SDS011;9931;51.458;7.256;2023-03-14T04:36:35;53.95;;;3.90;;
19569;SDS011;9931;51.458;7.256;2023-03-14T04:39:00;64.78;;;4.47;;
19569;SDS011;9931;51.458;7.256;2023-03-14T04:41:25;18.38;;;1.63;;
19569;SDS011;9931;51.458;7.256;2023-03-14T04:43:51;50.75;;;3.67;;
19569;SDS011;9931;51.458;7.256;2023-03-14T04:46:16;39.90;;;2.95;;
19569;SDS011;9931;51.458;7.256;2023-03-14T04:48:41;8.98;;;0.95;;
19569;SDS011;9931;51.458;7.256;2023-03-14T04:51:07;37.93;;;2.80;;
19569;SDS011;9931;51.458;7.256;2023-03-14T04:53:32;17.88;;;1.63;;
19569;SDS011;9931;51.458;7.256;2023-03-14T04:55:59;25.63;;;2.13;;
19569;SDS011;9931;51.458;7.256;2023-03-14T04:58:24;53.33;;;3.90;;
19569;SDS011;9931;51.458;7.256;2023-03-14T05:00:49;26.00;;;2.20;;
19569;SDS011;9931;51.458;7.256;2023-03-14T05:03:15;22.35;;;1.92;;
19569;SDS011;9931;51.458;7.256;2023-03-14T05:05:40;67.18;;;4.50;;
19569;SDS011;9931;51.458;7.256;2023-03-14T05:08:06;45.97;;;3.40;;
19569;SDS011;9931;51.458;7.256;2023-03-14T05:10:31;44.17;;;3.20;;
19569;SDS011;9931;51.458;7.256;2023-03-14T05:12:56;25.67;;;2.03;;
19569;SDS011;9931;51.458;7.256;2023-03-14T05:15:22;22.77;;;1.92;;
19569;SDS011;9931;51.458;7.256;2023-03-14T05:17:47;20.98;;;1.80;;
19569;SDS011;9931;51.458;7.256;2023-03-14T05:20:14;14.23;;;1.35;;
19569;SDS011;9931;51.458;7.256;2023-03-14T05:22:39;21.30;;;1.85;;
19569;SDS011;9931;51.458;7.256;2023-03-14T05:25:05;24.55;;;2.00;;
19569;SDS011;9931;51.458;7.256;2023-03-14T05:27:31;22.98;;;1.85;;
19569;SDS011;9931;51.458;7.256;2023-03-14T05:29:56;23.25;;;2.00;;
19569;SDS011;9931;51.458;7.256;2023-03-14T05:32:21;34.92;;;2.70;;
19569;SDS011;9931;51.458;7.256;2023-03-14T05:34:46;7.13;;;0.85;;
19569;SDS011;9931;51.458;7.256;2023-03-14T05:37:12;14.57;;;1.35;;
19569;SDS011;9931;51.458;7.256;2023-03-14T05:39:37;22.63;;;1.98;;
19569;SDS011;9931;51.458;7.256;2023-03-14T05:42:02;23.65;;;1.95;;
19569;SDS011;9931;51.458;7.256;2023-03-14T05:44:27;13.55;;;1.30;;
19569;SDS011;9931;51.458;7.256;2023-03-14T05:46:52;17.40;;;1.55;;
19569;SDS011;9931;51.458;7.256;2023-03-14T05:49:18;41.42;;;3.05;;
19569;SDS011;9931;51.458;7.256;2023-03-14T05:51:43;13.32;;;1.33;;
19569;SDS011;9931;51.458;7.256;2023-03-14T05:54:08;20.42;;;1.73;;
19569;SDS011;9931;51.458;7.256;2023-03-14T05:56:33;7.00;;;0.95;;
19569;SDS011;9931;51.458;7.256;2023-03-14T05:58:59;21.48;;;1.90;;
19569;SDS011;9931;51.458;7.256;2023-03-14T06:01:27;16.15;;;1.50;;
19569;SDS011;9931;51.458;7.256;2023-03-14T06:03:52;15.05;;;1.38;;
19569;SDS011;9931;51.458;7.256;2023-03-14T06:06:17;12.45;;;1.20;;
19569;SDS011;9931;51.458;7.256;2023-03-14T06:08:42;18.40;;;1.60;;
19569;SDS011;9931;51.458;7.256;2023-03-14T06:11:08;42.38;;;3.03;;
19569;SDS011;9931;51.458;7.256;2023-03-14T06:13:34;18.92;;;1.70;;
19569;SDS011;9931;51.458;7.256;2023-03-14T06:15:59;21.67;;;1.90;;
19569;SDS011;9931;51.458;7.256;2023-03-14T06:18:24;20.98;;;1.75;;
19569;SDS011;9931;51.458;7.256;2023-03-14T06:20:52;12.20;;;1.20;;
19569;SDS011;9931;51.458;7.256;2023-03-14T06:23:18;17.90;;;1.63;;
19569;SDS011;9931;51.458;7.256;2023-03-14T06:25:43;7.50;;;0.88;;
19569;SDS011;9931;51.458;7.256;2023-03-14T06:28:08;17.45;;;1.63;;
19569;SDS011;9931;51.458;7.256;2023-03-14T06:30:33;20.17;;;1.77;;
19569;SDS011;9931;51.458;7.256;2023-03-14T06:32:58;16.63;;;1.52;;
19569;SDS011;9931;51.458;7.256;2023-03-14T06:35:24;16.08;;;1.48;;
19569;SDS011;9931;51.458;7.256;2023-03-14T06:37:49;16.90;;;1.55;;
19569;SDS011;9931;51.458;7.256;2023-03-14T06:40:14;12.73;;;1.23;;
19569;SDS011;9931;51.458;7.256;2023-03-14T06:42:45;14.13;;;1.33;;
19569;SDS011;9931;51.458;7.256;2023-03-14T06:45:11;23.00;;;1.92;;
19569;SDS011;9931;51.458;7.256;2023-03-14T06:47:36;15.60;;;1.45;;
19569;SDS011;9931;51.458;7.256;2023-03-14T06:50:03;18.50;;;1.65;;
19569;SDS011;9931;51.458;7.256;2023-03-14T06:52:28;12.63;;;1.38;;
19569;SDS011;9931;51.458;7.256;2023-03-14T06:54:53;16.33;;;1.55;;
19569;SDS011;9931;51.458;7.256;2023-03-14T06:57:19;25.80;;;2.15;;
19569;SDS011;9931;51.458;7.256;2023-03-14T06:59:44;21.33;;;1.85;;
19569;SDS011;9931;51.458;7.256;2023-03-14T07:02:12;16.85;;;1.65;;
19569;SDS011;9931;51.458;7.256;2023-03-14T07:04:38;15.23;;;1.42;;
19569;SDS011;9931;51.458;7.256;2023-03-14T07:07:03;17.42;;;1.55;;
19569;SDS011;9931;51.458;7.256;2023-03-14T07:09:28;7.55;;;0.90;;
19569;SDS011;9931;51.458;7.256;2023-03-14T07:11:53;15.32;;;1.40;;
19569;SDS011;9931;51.458;7.256;2023-03-14T07:14:18;30.20;;;2.53;;
19569;SDS011;9931;51.458;7.256;2023-03-14T07:16:44;18.40;;;1.65;;
19569;SDS011;9931;51.458;7.256;2023-03-14T07:19:10;16.70;;;1.58;;
19569;SDS011;9931;51.458;7.256;2023-03-14T07:21:35;19.27;;;1.73;;
19569;SDS011;9931;51.458;7.256;2023-03-14T07:24:00;31.30;;;2.50;;
19569;SDS011;9931;51.458;7.256;2023-03-14T07:26:26;11.85;;;1.20;;
19569;SDS011;9931;51.458;7.256;2023-03-14T07:28:51;24.73;;;2.00;;
19569;SDS011;9931;51.458;7.256;2023-03-14T07:31:16;28.42;;;2.25;;
19569;SDS011;9931;51.458;7.256;2023-03-14T07:33:41;14.45;;;1.40;;
19569;SDS011;9931;51.458;7.256;2023-03-14T07:36:07;21.45;;;1.90;;
19569;SDS011;9931;51.458;7.256;2023-03-14T07:38:32;16.95;;;1.60;;
19569;SDS011;9931;51.458;7.256;2023-03-14T07:40:58;45.33;;;3.40;;
19569;SDS011;9931;51.458;7.256;2023-03-14T07:43:24;18.05;;;1.67;;
19569;SDS011;9931;51.458;7.256;2023-03-14T07:45:49;17.23;;;1.73;;
19569;SDS011;9931;51.458;7.256;2023-03-14T07:48:14;17.25;;;1.63;;
19569;SDS011;9931;51.458;7.256;2023-03-14T07:50:39;21.00;;;1.90;;
19569;SDS011;9931;51.458;7.256;2023-03-14T07:53:05;24.52;;;2.03;;
19569;SDS011;9931;51.458;7.256;2023-03-14T07:55:30;15.15;;;1.38;;
19569;SDS011;9931;51.458;7.256;2023-03-14T07:57:55;16.20;;;1.48;;
19569;SDS011;9931;51.458;7.256;2023-03-14T08:00:20;12.50;;;1.20;;
19569;SDS011;9931;51.458;7.256;2023-03-14T08:02:46;17.40;;;1.65;;
19569;SDS011;9931;51.458;7.256;2023-03-14T08:05:11;24.50;;;2.00;;
19569;SDS011;9931;51.458;7.256;2023-03-14T08:07:36;16.10;;;1.52;;
19569;SDS011;9931;51.458;7.256;2023-03-14T08:10:01;12.63;;;1.20;;
19569;SDS011;9931;51.458;7.256;2023-03-14T08:12:26;18.25;;;1.70;;
19569;SDS011;9931;51.458;7.256;2023-03-14T08:14:52;19.97;;;1.73;;
19569;SDS011;9931;51.458;7.256;2023-03-14T08:17:17;10.73;;;1.20;;
19569;SDS011;9931;51.458;7.256;2023-03-14T08:19:42;13.50;;;1.33;;
19569;SDS011;9931;51.458;7.256;2023-03-14T08:22:07;24.08;;;1.95;;
19569;SDS011;9931;51.458;7.256;2023-03-14T08:24:33;26.33;;;2.15;;
19569;SDS011;9931;51.458;7.256;2023-03-14T08:26:58;4.38;;;0.68;;
19569;SDS011;9931;51.458;7.256;2023-03-14T08:29:23;18.30;;;1.60;;
19569;SDS011;9931;51.458;7.256;2023-03-14T08:31:48;19.98;;;1.75;;
19569;SDS011;9931;51.458;7.256;2023-03-14T08:34:14;17.92;;;1.60;;
19569;SDS011;9931;51.458;7.256;2023-03-14T08:36:39;14.10;;;1.40;;
19569;SDS011;9931;51.458;7.256;2023-03-14T08:39:04;17.85;;;1.52;;
19569;SDS011;9931;51.458;7.256;2023-03-14T08:41:32;17.05;;;1.55;;
19569;SDS011;9931;51.458;7.256;2023-03-14T08:43:57;26.27;;;2.20;;
19569;SDS011;9931;51.458;7.256;2023-03-14T08:46:22;18.02;;;1.55;;
19569;SDS011;9931;51.458;7.256;2023-03-14T08:48:47;18.48;;;1.63;;
19569;SDS011;9931;51.458;7.256;2023-03-14T08:51:13;46.28;;;3.28;;
19569;SDS011;9931;51.458;7.256;2023-03-14T08:53:39;15.63;;;1.45;;
19569;SDS011;9931;51.458;7.256;2023-03-14T08:56:04;24.35;;;2.05;;
19569;SDS011;9931;51.458;7.256;2023-03-14T08:58:31;18.70;;;1.67;;
19569;SDS011;9931;51.458;7.256;2023-03-14T09:00:56;14.27;;;1.35;;
19569;SDS011;9931;51.458;7.256;2023-03-14T09:03:22;41.38;;;3.08;;
19569;SDS011;9931;51.458;7.256;2023-03-14T09:05:48;17.45;;;1.55;;
19569;SDS011;9931;51.458;7.256;2023-03-14T09:08:13;14.13;;;1.45;;
19569;SDS011;9931;51.458;7.256;2023-03-14T09:10:38;15.75;;;1.40;;
19569;SDS011;9931;51.458;7.256;2023-03-14T09:13:03;19.05;;;1.77;;
19569;SDS011;9931;51.458;7.256;2023-03-14T09:15:29;21.73;;;2.00;;
19569;SDS011;9931;51.458;7.256;2023-03-14T09:17:54;17.60;;;1.60;;
19569;SDS011;9931;51.458;7.256;2023-03-14T09:20:19;15.63;;;1.40;;
19569;SDS011;9931;51.458;7.256;2023-03-14T09:22:44;21.52;;;1.85;;
19569;SDS011;9931;51.458;7.256;2023-03-14T09:25:10;37.28;;;2.75;;
19569;SDS011;9931;51.458;7.256;2023-03-14T09:27:35;17.77;;;1.55;;
19569;SDS011;9931;51.458;7.256;2023-03-14T09:30:00;15.70;;;1.38;;
19569;SDS011;9931;51.458;7.256;2023-03-14T09:32:26;28.88;;;2.30;;
19569;SDS011;9931;51.458;7.256;2023-03-14T09:34:51;17.83;;;1.55;;
19569;SDS011;9931;51.458;7.256;2023-03-14T09:37:16;17.42;;;1.50;;
19569;SDS011;9931;51.458;7.256;2023-03-14T09:39:42;20.35;;;1.75;;
19569;SDS011;9931;51.458;7.256;2023-03-14T09:42:07;10.95;;;1.10;;
19569;SDS011;9931;51.458;7.256;2023-03-14T09:44:34;27.35;;;2.15;;
19569;SDS011;9931;51.458;7.256;2023-03-14T09:47:01;22.17;;;1.90;;
19569;SDS011;9931;51.458;7.256;2023-03-14T09:49:28;19.52;;;1.73;;
19569;SDS011;9931;51.458;7.256;2023-03-14T09:51:56;35.83;;;2.72;;
19569;SDS011;9931;51.458;7.256;2023-03-14T09:54:34;18.05;;;1.60;;
19569;SDS011;9931;51.458;7.256;2023-03-14T09:57:00;17.75;;;1.52;;
19569;SDS011;9931;51.458;7.256;2023-03-14T09:59:25;16.67;;;1.55;;
19569;SDS011;9931;51.458;7.256;2023-03-14T10:01:52;24.27;;;2.05;;
19569;SDS011;9931;51.458;7.256;2023-03-14T10:04:18;33.25;;;2.53;;
19569;SDS011;9931;51.458;7.256;2023-03-14T10:06:46;19.33;;;1.70;;
19569;SDS011;9931;51.458;7.256;2023-03-14T10:09:14;20.83;;;1.73;;
19569;SDS011;9931;51.458;7.256;2023-03-14T10:11:42;7.18;;;0.77;;
19569;SDS011;9931;51.458;7.256;2023-03-14T10:14:09;20.38;;;1.60;;
19569;SDS011;9931;51.458;7.256;2023-03-14T10:16:43;16.88;;;1.52;;
19569;SDS011;9931;51.458;7.256;2023-03-14T10:19:10;26.08;;;1.95;;
19569;SDS011;9931;51.458;7.256;2023-03-14T10:21:39;14.70;;;1.35;;
19569;SDS011;9931;51.458;7.256;2023-03-14T10:24:49;22.05;;;1.85;;
19569;SDS011;9931;51.458;7.256;2023-03-14T10:27:04;20.10;;;1.70;;
19569;SDS011;9931;51.458;7.256;2023-03-14T10:29:30;22.83;;;1.80;;
19569;SDS011;9931;51.458;7.256;2023-03-14T10:34:33;25.23;;;2.03;;
19569;SDS011;9931;51.458;7.256;2023-03-14T10:36:59;1.98;;;0.45;;
19569;SDS011;9931;51.458;7.256;2023-03-14T10:39:30;26.05;;;2.03;;
19569;SDS011;9931;51.458;7.256;2023-03-14T10:42:18;37.85;;;2.65;;
19569;SDS011;9931;51.458;7.256;2023-03-14T10:44:44;19.45;;;1.70;;
19569;SDS011;9931;51.458;7.256;2023-03-14T10:47:20;22.17;;;1.85;;
19569;SDS011;9931;51.458;7.256;2023-03-14T10:49:47;38.50;;;2.72;;
19569;SDS011;9931;51.458;7.256;2023-03-14T10:54:38;16.13;;;1.40;;
19569;SDS011;9931;51.458;7.256;2023-03-14T10:57:04;29.05;;;2.17;;
19569;SDS011;9931;51.458;7.256;2023-03-14T10:59:33;23.13;;;1.77;;
19569;SDS011;9931;51.458;7.256;2023-03-14T11:02:04;31.95;;;2.35;;
19569;SDS011;9931;51.458;7.256;2023-03-14T11:07:22;21.35;;;1.67;;
19569;SDS011;9931;51.458;7.256;2023-03-14T11:15:00;19.13;;;1.55;;
19569;SDS011;9931;51.458;7.256;2023-03-14T11:22:39;16.77;;;1.50;;
19569;SDS011;9931;51.458;7.256;2023-03-14T11:25:09;17.70;;;1.48;;
19569;SDS011;9931;51.458;7.256;2023-03-14T11:27:41;16.10;;;1.38;;
19569;SDS011;9931;51.458;7.256;2023-03-14T11:30:25;13.43;;;1.20;;
19569;SDS011;9931;51.458;7.256;2023-03-14T11:33:05;14.35;;;1.30;;
19569;SDS011;9931;51.458;7.256;2023-03-14T11:35:34;4.85;;;0.68;;
19569;SDS011;9931;51.458;7.256;2023-03-14T11:38:03;13.88;;;1.20;;
19569;SDS011;9931;51.458;7.256;2023-03-14T11:40:30;16.80;;;1.40;;
19569;SDS011;9931;51.458;7.256;2023-03-14T11:45:27;21.50;;;1.77;;
19569;SDS011;9931;51.458;7.256;2023-03-14T11:48:07;19.05;;;1.63;;
19569;SDS011;9931;51.458;7.256;2023-03-14T11:50:38;15.38;;;1.35;;
19569;SDS011;9931;51.458;7.256;2023-03-14T11:53:04;19.42;;;1.63;;
19569;SDS011;9931;51.458;7.256;2023-03-14T11:55:34;20.52;;;1.65;;
19569;SDS011;9931;51.458;7.256;2023-03-14T11:58:09;5.63;;;0.70;;
19569;SDS011;9931;51.458;7.256;2023-03-14T12:00:37;14.88;;;1.30;;
19569;SDS011;9931;51.458;7.256;2023-03-14T12:03:11;16.92;;;1.42;;
19569;SDS011;9931;51.458;7.256;2023-03-14T12:08:22;20.30;;;1.73;;
19569;SDS011;9931;51.458;7.256;2023-03-14T12:10:54;20.63;;;1.70;;
19569;SDS011;9931;51.458;7.256;2023-03-14T12:13:20;19.55;;;1.60;;
19569;SDS011;9931;51.458;7.256;2023-03-14T12:15:49;7.10;;;0.77;;
19569;SDS011;9931;51.458;7.256;2023-03-14T12:18:37;16.73;;;1.42;;
19569;SDS011;9931;51.458;7.256;2023-03-14T12:21:07;29.73;;;2.15;;
19569;SDS011;9931;51.458;7.256;2023-03-14T12:23:43;8.85;;;0.90;;
19569;SDS011;9931;51.458;7.256;2023-03-14T12:28:38;20.15;;;1.58;;
19569;SDS011;9931;51.458;7.256;2023-03-14T12:33:48;19.35;;;1.60;;
19569;SDS011;9931;51.458;7.256;2023-03-14T12:36:18;24.05;;;1.85;;
19569;SDS011;9931;51.458;7.256;2023-03-14T12:38:52;24.52;;;1.77;;
19569;SDS011;9931;51.458;7.256;2023-03-14T12:41:23;39.42;;;2.75;;
19569;SDS011;9931;51.458;7.256;2023-03-14T12:43:50;15.82;;;1.42;;
19569;SDS011;9931;51.458;7.256;2023-03-14T12:48:43;42.38;;;2.97;;
19569;SDS011;9931;51.458;7.256;2023-03-14T12:51:13;39.75;;;2.63;;
19569;SDS011;9931;51.458;7.256;2023-03-14T12:58:35;16.17;;;1.40;;
19569;SDS011;9931;51.458;7.256;2023-03-14T13:01:04;19.67;;;1.63;;
19569;SDS011;9931;51.458;7.256;2023-03-14T13:03:38;18.42;;;1.50;;
19569;SDS011;9931;51.458;7.256;2023-03-14T13:06:04;15.57;;;1.42;;
19569;SDS011;9931;51.458;7.256;2023-03-14T13:08:45;16.02;;;1.40;;
19569;SDS011;9931;51.458;7.256;2023-03-14T13:11:12;27.25;;;1.83;;
19569;SDS011;9931;51.458;7.256;2023-03-14T13:13:41;33.78;;;2.47;;
19569;SDS011;9931;51.458;7.256;2023-03-14T13:16:09;18.30;;;1.50;;
19569;SDS011;9931;51.458;7.256;2023-03-14T13:18:42;15.30;;;1.38;;
19569;SDS011;9931;51.458;7.256;2023-03-14T13:23:38;13.20;;;1.30;;
19569;SDS011;9931;51.458;7.256;2023-03-14T13:26:06;22.35;;;1.88;;
19569;SDS011;9931;51.458;7.256;2023-03-14T13:28:35;14.88;;;1.40;;
19569;SDS011;9931;51.458;7.256;2023-03-14T13:31:01;18.00;;;1.60;;
19569;SDS011;9931;51.458;7.256;2023-03-14T13:33:26;24.00;;;1.98;;
19569;SDS011;9931;51.458;7.256;2023-03-14T13:35:59;21.15;;;1.80;;
19569;SDS011;9931;51.458;7.256;2023-03-14T13:38:26;16.35;;;1.45;;
19569;SDS011;9931;51.458;7.256;2023-03-14T13:40:53;5.40;;;0.70;;
19569;SDS011;9931;51.458;7.256;2023-03-14T13:43:20;29.70;;;2.33;;
19569;SDS011;9931;51.458;7.256;2023-03-14T13:45:50;4.72;;;0.60;;
19569;SDS011;9931;51.458;7.256;2023-03-14T13:48:16;11.80;;;1.15;;
19569;SDS011;9931;51.458;7.256;2023-03-14T13:51:24;15.70;;;1.45;;
19569;SDS011;9931;51.458;7.256;2023-03-14T13:53:30;28.85;;;2.10;;
19569;SDS011;9931;51.458;7.256;2023-03-14T13:55:56;17.70;;;1.58;;
19569;SDS011;9931;51.458;7.256;2023-03-14T14:00:53;20.15;;;1.60;;
19569;SDS011;9931;51.458;7.256;2023-03-14T14:03:19;22.40;;;1.85;;
19569;SDS011;9931;51.458;7.256;2023-03-14T14:05:44;12.18;;;1.20;;
19569;SDS011;9931;51.458;7.256;2023-03-14T14:08:11;30.00;;;2.30;;
19569;SDS011;9931;51.458;7.256;2023-03-14T14:10:37;15.18;;;1.40;;
19569;SDS011;9931;51.458;7.256;2023-03-14T14:13:02;18.08;;;1.55;;
19569;SDS011;9931;51.458;7.256;2023-03-14T14:15:29;16.42;;;1.50;;
19569;SDS011;9931;51.458;7.256;2023-03-14T14:18:06;10.77;;;1.10;;
19569;SDS011;9931;51.458;7.256;2023-03-14T14:20:34;20.85;;;1.75;;
19569;SDS011;9931;51.458;7.256;2023-03-14T14:23:04;18.92;;;1.63;;
19569;SDS011;9931;51.458;7.256;2023-03-14T14:25:29;26.65;;;2.05;;
19569;SDS011;9931;51.458;7.256;2023-03-14T14:27:55;16.40;;;1.48;;
19569;SDS011;9931;51.458;7.256;2023-03-14T14:32:49;21.48;;;1.80;;
19569;SDS011;9931;51.458;7.256;2023-03-14T14:35:25;13.68;;;1.30;;
19569;SDS011;9931;51.458;7.256;2023-03-14T14:37:50;27.20;;;2.15;;
19569;SDS011;9931;51.458;7.256;2023-03-14T14:40:18;10.50;;;1.05;;
19569;SDS011;9931;51.458;7.256;2023-03-14T14:42:44;21.50;;;1.83;;
19569;SDS011;9931;51.458;7.256;2023-03-14T14:45:14;19.23;;;1.58;;
19569;SDS011;9931;51.458;7.256;2023-03-14T14:47:51;36.10;;;2.67;;
19569;SDS011;9931;51.458;7.256;2023-03-14T14:50:26;31.75;;;2.33;;
19569;SDS011;9931;51.458;7.256;2023-03-14T14:52:55;16.42;;;1.48;;
19569;SDS011;9931;51.458;7.256;2023-03-14T14:55:21;28.55;;;2.17;;
19569;SDS011;9931;51.458;7.256;2023-03-14T14:57:50;16.98;;;1.50;;
19569;SDS011;9931;51.458;7.256;2023-03-14T15:02:45;18.17;;;1.60;;
19569;SDS011;9931;51.458;7.256;2023-03-14T15:05:12;16.45;;;1.50;;
19569;SDS011;9931;51.458;7.256;2023-03-14T15:07:38;11.43;;;1.10;;
19569;SDS011;9931;51.458;7.256;2023-03-14T15:10:03;15.48;;;1.42;;
19569;SDS011;9931;51.458;7.256;2023-03-14T15:12:28;22.45;;;1.88;;
19569;SDS011;9931;51.458;7.256;2023-03-14T15:14:53;20.45;;;1.77;;
19569;SDS011;9931;51.458;7.256;2023-03-14T15:17:22;23.15;;;1.92;;
19569;SDS011;9931;51.458;7.256;2023-03-14T15:19:47;31.15;;;2.33;;
19569;SDS011;9931;51.458;7.256;2023-03-14T15:22:12;18.65;;;1.65;;
19569;SDS011;9931;51.458;7.256;2023-03-14T15:24:39;16.05;;;1.42;;
19569;SDS011;9931;51.458;7.256;2023-03-14T15:27:05;26.20;;;2.03;;
19569;SDS011;9931;51.458;7.256;2023-03-14T15:29:33;23.00;;;1.90;;
19569;SDS011;9931;51.458;7.256;2023-03-14T15:31:58;15.20;;;1.40;;
19569;SDS011;9931;51.458;7.256;2023-03-14T15:34:23;14.93;;;1.35;;
19569;SDS011;9931;51.458;7.256;2023-03-14T15:36:49;46.90;;;3.38;;
19569;SDS011;9931;51.458;7.256;2023-03-14T15:39:14;18.50;;;1.63;;
19569;SDS011;9931;51.458;7.256;2023-03-14T15:41:39;15.93;;;1.42;;